Hercules — V7WL6 — position and weather

sailwx.info

Track history (hours):
 
Tides and Currents Weather Stations Pressure Air Temp Water Temp Dewpoint Dewpoint Depression Visibility Wind Speed Wind Dir Waves Ship Positions

Hercules

Last reported at 2017-Sep-27 07:01 UTC. Time now 2017-Oct-20 01:17 UTC.
Position N 46°13' W 125°38'.
Warning: this ship's position is 22 days out of date.

Length 189 m; draft 13 m.

Type: Cargo ship. MMSI: 538004331.

Date/timePositionNaut miles runAvg speedWind from/ knotsBaromVisibWave heightAir tempDewpointWater temp
2017-Sep-27 07:01N 46°13' W 125°38'1 1.8
2017-Sep-27 06:39N 46°12' W 125°37'211.3
2017-Sep-27 06:30N 46°12' W 125°35'510.9
2017-Sep-27 06:00N 46°12' W 125°27'511.1
2017-Sep-27 05:30N 46°12' W 125°19'611.2
2017-Sep-27 04:57N 46°12' W 125°10'1111.4
2017-Sep-27 04:01N 46°12' W 124°55'012.4
2017-Sep-27 03:59N 46°12' W 124°54'611.7
2017-Sep-27 03:30N 46°12' W 124°46'611.5
2017-Sep-27 03:00N 46°12' W 124°38'611.1
2017-Sep-27 02:30N 46°11' W 124°30'510.9
2017-Sep-27 02:00N 46°10' W 124°22'510.8
2017-Sep-27 01:30N 46°10' W 124°14'5 7.1
2017-Sep-27 00:48N 46°13' W 124°08'310.3
2017-Sep-27 00:30N 46°15' W 124°05'4 8.7
2017-Sep-27 00:00N 46°14' W 123°59'4 8.3
2017-Sep-26 23:28N 46°11' W 123°54'5 7.8
2017-Sep-26 22:49N 46°13' W 123°47'3 8.5
2017-Sep-26 22:29N 46°14' W 123°43'4 8.7
2017-Sep-26 22:00N 46°16' W 123°38'5 9.7
2017-Sep-26 21:30N 46°16' W 123°31'5 9.0
2017-Sep-26 21:00N 46°13' W 123°25'5 9.3
2017-Sep-26 20:30N 46°09' W 123°23'810.9
2017-Sep-26 19:46N 46°11' W 123°12'311.4
2017-Sep-26 19:30N 46°11' W 123°08'611.2
2017-Sep-26 19:00N 46°08' W 123°01'510.0
2017-Sep-26 18:30N 46°05' W 122°55'5 9.5
2017-Sep-26 18:00N 46°01' W 122°52'2 4.7
2017-Sep-26 17:30N 45°59' W 122°50'0 0.2
2017-Sep-26 16:59N 45°59' W 122°50'0 0.0
2017-Sep-26 16:26N 45°59' W 122°50'0 0.0
2017-Sep-26 15:53N 45°59' W 122°50'0 0.0
2017-Sep-26 15:29N 45°59' W 122°50'0 0.0
2017-Sep-26 14:56N 45°59' W 122°50'0 0.0
2017-Sep-26 14:29N 45°59' W 122°50'0 0.0
2017-Sep-26 13:35N 45°59' W 122°50'0 0.0
2017-Sep-26 13:26N 45°59' W 122°50'0 0.0
2017-Sep-26 12:59N 45°59' W 122°50'0 0.0
2017-Sep-26 12:29N 45°59' W 122°50'0 0.0
2017-Sep-26 11:59N 45°59' W 122°50'0 0.0
2017-Sep-26 11:29N 45°59' W 122°50'0 0.0
2017-Sep-26 10:56N 45°59' W 122°50'0 0.0
2017-Sep-26 10:29N 45°59' W 122°50'0 0.0
2017-Sep-26 09:56N 45°59' W 122°50'0 0.0
2017-Sep-26 09:29N 45°59' W 122°50'0 0.0
2017-Sep-26 08:56N 45°59' W 122°50'0 0.0
2017-Sep-26 08:29N 45°59' W 122°50'0 0.0
2017-Sep-26 07:59N 45°59' W 122°50'0 0.0
2017-Sep-26 07:26N 45°59' W 122°50'0 0.0
2017-Sep-26 06:56N 45°59' W 122°50'0 0.0
2017-Sep-26 06:26N 45°59' W 122°50'0 0.0
2017-Sep-26 05:59N 45°59' W 122°50'0 0.0
2017-Sep-26 05:23N 45°59' W 122°50'0 0.0
2017-Sep-26 04:53N 45°59' W 122°50'0 0.0
2017-Sep-26 04:05N 45°59' W 122°50'0 0.1
2017-Sep-26 03:59N 45°59' W 122°50'0 0.0
2017-Sep-26 03:29N 45°59' W 122°50'0 0.0
2017-Sep-26 02:59N 45°59' W 122°50'0 0.0
2017-Sep-26 01:32N 45°59' W 122°50'0 0.0
2017-Sep-26 01:29N 45°59' W 122°50'0 0.0
2017-Sep-26 00:56N 45°59' W 122°50'0 0.0
2017-Sep-26 00:26N 45°59' W 122°50'0 0.0
2017-Sep-25 23:59N 45°59' W 122°50'0 0.0
2017-Sep-25 23:05N 45°59' W 122°50'0 0.0
2017-Sep-25 22:56N 45°59' W 122°50'0 0.0
2017-Sep-25 22:29N 45°59' W 122°50'0 0.0
2017-Sep-25 21:56N 45°59' W 122°50'0 0.0
2017-Sep-25 21:29N 45°59' W 122°50'0 0.0
2017-Sep-25 20:56N 45°59' W 122°50'0 0.0
2017-Sep-25 20:11N 45°59' W 122°50'0 0.0
2017-Sep-25 19:59N 45°59' W 122°50'0 0.0
2017-Sep-25 19:23N 45°59' W 122°50'0 0.0
2017-Sep-25 18:50N 45°59' W 122°50'0 0.0
2017-Sep-25 18:29N 45°59' W 122°50'0 0.0
2017-Sep-25 17:59N 45°59' W 122°50'0 0.0
2017-Sep-25 17:29N 45°59' W 122°50'0 0.0
2017-Sep-25 16:59N 45°59' W 122°50'0 0.0
2017-Sep-25 16:29N 45°59' W 122°50'0 0.0
2017-Sep-25 15:56N 45°59' W 122°50'0 0.0
2017-Sep-25 15:29N 45°59' W 122°50'0 0.0
2017-Sep-25 14:56N 45°59' W 122°50'0 0.0
2017-Sep-25 14:29N 45°59' W 122°50'0 0.0
2017-Sep-25 13:59N 45°59' W 122°50'0 0.0
2017-Sep-25 13:26N 45°59' W 122°50'0 0.0
2017-Sep-25 12:59N 45°59' W 122°50'0 0.0
2017-Sep-25 12:23N 45°59' W 122°50'0 0.0
2017-Sep-25 11:59N 45°59' W 122°50'0 0.0
2017-Sep-25 11:29N 45°59' W 122°50'0 0.0
2017-Sep-25 10:56N 45°59' W 122°50'0 0.0
2017-Sep-25 09:50N 45°59' W 122°50'0 0.0
2017-Sep-25 09:23N 45°59' W 122°50'0 0.0
2017-Sep-25 08:59N 45°59' W 122°50'0 0.0
2017-Sep-25 08:02N 45°59' W 122°50'0 0.0
2017-Sep-25 07:59N 45°59' W 122°50'0 0.0
2017-Sep-25 07:29N 45°59' W 122°50'0 0.0
2017-Sep-25 06:53N 45°59' W 122°50'0 0.0
2017-Sep-25 06:26N 45°59' W 122°50'0 0.0
2017-Sep-25 05:59N 45°59' W 122°50'0 0.0
2017-Sep-25 05:20N 45°59' W 122°50'0 0.0
2017-Sep-25 04:59N 45°59' W 122°50'0 0.0
2017-Sep-25 04:26N 45°59' W 122°50'0 0.0
2017-Sep-25 03:38N 45°59' W 122°50'0 0.0
2017-Sep-25 03:29N 45°59' W 122°50'0 0.0
2017-Sep-25 02:59N 45°59' W 122°50'0 0.0
2017-Sep-25 02:11N 45°59' W 122°50'0 0.0
2017-Sep-25 01:52N 45°59' W 122°50'0 0.0
2017-Sep-25 01:28N 45°59' W 122°50'0 0.7
2017-Sep-25 01:00N 45°59' W 122°50'4 8.9
2017-Sep-25 00:30N 45°54' W 122°48'612.2
2017-Sep-25 00:00N 45°48' W 122°48'713.2
2017-Sep-24 23:31N 45°42' W 122°46'5 9.8
2017-Sep-24 23:00N 45°37' W 122°47'5 9.3
2017-Sep-24 22:30N 45°34' W 122°43'2 4.5
2017-Sep-24 22:01N 45°32' W 122°41'0 0.0
2017-Sep-24 21:30N 45°32' W 122°41'0 0.0
2017-Sep-24 20:57N 45°32' W 122°41'0 0.0
2017-Sep-24 20:30N 45°32' W 122°41'0 0.0
2017-Sep-24 20:00N 45°32' W 122°41'0 0.0
2017-Sep-24 19:24N 45°32' W 122°41'0 0.0
2017-Sep-24 18:57N 45°32' W 122°41'0 0.0
2017-Sep-24 18:16N 45°32' W 122°41'0 0.0
2017-Sep-24 18:00N 45°32' W 122°41'0 0.0
2017-Sep-24 17:24N 45°32' W 122°41'0 0.0
2017-Sep-24 16:55N 45°32' W 122°41'0 0.0
2017-Sep-24 16:24N 45°32' W 122°41'0 0.0
2017-Sep-24 16:00N 45°32' W 122°41'0 0.0
2017-Sep-24 15:30N 45°32' W 122°41'0 0.0
2017-Sep-24 15:00N 45°32' W 122°41'0 0.0
2017-Sep-24 14:30N 45°32' W 122°41'0 0.0
2017-Sep-24 14:00N 45°32' W 122°41'0 0.0
2017-Sep-24 13:30N 45°32' W 122°41'0 0.0
2017-Sep-24 13:00N 45°32' W 122°41'0 0.0
2017-Sep-24 12:30N 45°32' W 122°41'0 0.0
2017-Sep-24 12:00N 45°32' W 122°41'0 0.0
2017-Sep-24 11:30N 45°32' W 122°41'0 0.0
2017-Sep-24 11:00N 45°32' W 122°41'0 0.0
2017-Sep-24 10:30N 45°32' W 122°41'0 0.0
2017-Sep-24 10:00N 45°32' W 122°41'0 0.0
2017-Sep-24 09:30N 45°32' W 122°41'0 0.0
2017-Sep-24 09:00N 45°32' W 122°41'0 0.0
2017-Sep-24 08:27N 45°32' W 122°41'0 0.0
2017-Sep-24 08:00N 45°32' W 122°41'0 0.0
2017-Sep-24 07:30N 45°32' W 122°41'0 0.0
2017-Sep-24 07:00N 45°32' W 122°41'0 0.0
2017-Sep-24 06:30N 45°32' W 122°41'0 0.0
2017-Sep-24 06:00N 45°32' W 122°41'0 0.0
2017-Sep-24 05:30N 45°32' W 122°41'0 0.0
2017-Sep-24 05:00N 45°32' W 122°41'0 0.0
2017-Sep-24 04:30N 45°32' W 122°41'0 0.0
2017-Sep-24 04:00N 45°32' W 122°41'0 0.0
2017-Sep-24 03:30N 45°32' W 122°41'0 0.0
2017-Sep-24 03:00N 45°32' W 122°41'0 0.0
2017-Sep-24 02:30N 45°32' W 122°41'0 0.2
2017-Sep-24 02:00N 45°32' W 122°41'2 4.8
2017-Sep-24 01:30N 45°34' W 122°43'4 8.1
2017-Sep-24 01:00N 45°37' W 122°47'4 8.1
2017-Sep-24 00:30N 45°41' W 122°47'612.7
2017-Sep-24 00:00N 45°47' W 122°46'612.2
2017-Sep-23 23:30N 45°53' W 122°48'612.2
2017-Sep-23 23:01N 45°59' W 122°50'611.4
2017-Sep-23 22:30N 46°04' W 122°53'511.0
2017-Sep-23 22:00N 46°08' W 122°60'612.3
2017-Sep-23 21:30N 46°11' W 123°07'1211.6
2017-Sep-23 20:29N 46°09' W 123°24'510.9
2017-Sep-23 20:00N 46°15' W 123°26'  
Track history (hours):
 
Tides and Currents Weather Stations Pressure Air Temp Water Temp Dewpoint Dewpoint Depression Visibility Wind Speed Wind Dir Waves Ship Positions

Hercules

Last reported at 2017-Sep-27 07:01 UTC. Time now 2017-Oct-20 01:17 UTC.
Position N 46°13' W 125°38'.
Warning: this ship's position is 22 days out of date.

Length 189 m; draft 13 m.

Type: Cargo ship. MMSI: 538004331.

Date/timePositionNaut miles runAvg speedWind from/ knotsBaromVisibWave heightAir tempDewpointWater temp
2017-Sep-27 07:01N 46°13' W 125°38'1 1.8
2017-Sep-27 06:39N 46°12' W 125°37'211.3
2017-Sep-27 06:30N 46°12' W 125°35'510.9
2017-Sep-27 06:00N 46°12' W 125°27'511.1
2017-Sep-27 05:30N 46°12' W 125°19'611.2
2017-Sep-27 04:57N 46°12' W 125°10'1111.4
2017-Sep-27 04:01N 46°12' W 124°55'012.4
2017-Sep-27 03:59N 46°12' W 124°54'611.7
2017-Sep-27 03:30N 46°12' W 124°46'611.5
2017-Sep-27 03:00N 46°12' W 124°38'611.1
2017-Sep-27 02:30N 46°11' W 124°30'510.9
2017-Sep-27 02:00N 46°10' W 124°22'510.8
2017-Sep-27 01:30N 46°10' W 124°14'5 7.1
2017-Sep-27 00:48N 46°13' W 124°08'310.3
2017-Sep-27 00:30N 46°15' W 124°05'4 8.7
2017-Sep-27 00:00N 46°14' W 123°59'4 8.3
2017-Sep-26 23:28N 46°11' W 123°54'5 7.8
2017-Sep-26 22:49N 46°13' W 123°47'3 8.5
2017-Sep-26 22:29N 46°14' W 123°43'4 8.7
2017-Sep-26 22:00N 46°16' W 123°38'5 9.7
2017-Sep-26 21:30N 46°16' W 123°31'5 9.0
2017-Sep-26 21:00N 46°13' W 123°25'5 9.3
2017-Sep-26 20:30N 46°09' W 123°23'810.9
2017-Sep-26 19:46N 46°11' W 123°12'311.4
2017-Sep-26 19:30N 46°11' W 123°08'611.2
2017-Sep-26 19:00N 46°08' W 123°01'510.0
2017-Sep-26 18:30N 46°05' W 122°55'5 9.5
2017-Sep-26 18:00N 46°01' W 122°52'2 4.7
2017-Sep-26 17:30N 45°59' W 122°50'0 0.2
2017-Sep-26 16:59N 45°59' W 122°50'0 0.0
2017-Sep-26 16:26N 45°59' W 122°50'0 0.0
2017-Sep-26 15:53N 45°59' W 122°50'0 0.0
2017-Sep-26 15:29N 45°59' W 122°50'0 0.0
2017-Sep-26 14:56N 45°59' W 122°50'0 0.0
2017-Sep-26 14:29N 45°59' W 122°50'0 0.0
2017-Sep-26 13:35N 45°59' W 122°50'0 0.0
2017-Sep-26 13:26N 45°59' W 122°50'0 0.0
2017-Sep-26 12:59N 45°59' W 122°50'0 0.0
2017-Sep-26 12:29N 45°59' W 122°50'0 0.0
2017-Sep-26 11:59N 45°59' W 122°50'0 0.0
2017-Sep-26 11:29N 45°59' W 122°50'0 0.0
2017-Sep-26 10:56N 45°59' W 122°50'0 0.0
2017-Sep-26 10:29N 45°59' W 122°50'0 0.0
2017-Sep-26 09:56N 45°59' W 122°50'0 0.0
2017-Sep-26 09:29N 45°59' W 122°50'0 0.0
2017-Sep-26 08:56N 45°59' W 122°50'0 0.0
2017-Sep-26 08:29N 45°59' W 122°50'0 0.0
2017-Sep-26 07:59N 45°59' W 122°50'0 0.0
2017-Sep-26 07:26N 45°59' W 122°50'0 0.0
2017-Sep-26 06:56N 45°59' W 122°50'0 0.0
2017-Sep-26 06:26N 45°59' W 122°50'0 0.0
2017-Sep-26 05:59N 45°59' W 122°50'0 0.0
2017-Sep-26 05:23N 45°59' W 122°50'0 0.0
2017-Sep-26 04:53N 45°59' W 122°50'0 0.0
2017-Sep-26 04:05N 45°59' W 122°50'0 0.1
2017-Sep-26 03:59N 45°59' W 122°50'0 0.0
2017-Sep-26 03:29N 45°59' W 122°50'0 0.0
2017-Sep-26 02:59N 45°59' W 122°50'0 0.0
2017-Sep-26 01:32N 45°59' W 122°50'0 0.0
2017-Sep-26 01:29N 45°59' W 122°50'0 0.0
2017-Sep-26 00:56N 45°59' W 122°50'0 0.0
2017-Sep-26 00:26N 45°59' W 122°50'0 0.0
2017-Sep-25 23:59N 45°59' W 122°50'0 0.0
2017-Sep-25 23:05N 45°59' W 122°50'0 0.0
2017-Sep-25 22:56N 45°59' W 122°50'0 0.0
2017-Sep-25 22:29N 45°59' W 122°50'0 0.0
2017-Sep-25 21:56N 45°59' W 122°50'0 0.0
2017-Sep-25 21:29N 45°59' W 122°50'0 0.0
2017-Sep-25 20:56N 45°59' W 122°50'0 0.0
2017-Sep-25 20:11N 45°59' W 122°50'0 0.0
2017-Sep-25 19:59N 45°59' W 122°50'0 0.0
2017-Sep-25 19:23N 45°59' W 122°50'0 0.0
2017-Sep-25 18:50N 45°59' W 122°50'0 0.0
2017-Sep-25 18:29N 45°59' W 122°50'0 0.0
2017-Sep-25 17:59N 45°59' W 122°50'0 0.0
2017-Sep-25 17:29N 45°59' W 122°50'0 0.0
2017-Sep-25 16:59N 45°59' W 122°50'0 0.0
2017-Sep-25 16:29N 45°59' W 122°50'0 0.0
2017-Sep-25 15:56N 45°59' W 122°50'0 0.0
2017-Sep-25 15:29N 45°59' W 122°50'0 0.0
2017-Sep-25 14:56N 45°59' W 122°50'0 0.0
2017-Sep-25 14:29N 45°59' W 122°50'0 0.0
2017-Sep-25 13:59N 45°59' W 122°50'0 0.0
2017-Sep-25 13:26N 45°59' W 122°50'0 0.0
2017-Sep-25 12:59N 45°59' W 122°50'0 0.0
2017-Sep-25 12:23N 45°59' W 122°50'0 0.0
2017-Sep-25 11:59N 45°59' W 122°50'0 0.0
2017-Sep-25 11:29N 45°59' W 122°50'0 0.0
2017-Sep-25 10:56N 45°59' W 122°50'0 0.0
2017-Sep-25 09:50N 45°59' W 122°50'0 0.0
2017-Sep-25 09:23N 45°59' W 122°50'0 0.0
2017-Sep-25 08:59N 45°59' W 122°50'0 0.0
2017-Sep-25 08:02N 45°59' W 122°50'0 0.0
2017-Sep-25 07:59N 45°59' W 122°50'0 0.0
2017-Sep-25 07:29N 45°59' W 122°50'0 0.0
2017-Sep-25 06:53N 45°59' W 122°50'0 0.0
2017-Sep-25 06:26N 45°59' W 122°50'0 0.0
2017-Sep-25 05:59N 45°59' W 122°50'0 0.0
2017-Sep-25 05:20N 45°59' W 122°50'0 0.0
2017-Sep-25 04:59N 45°59' W 122°50'0 0.0
2017-Sep-25 04:26N 45°59' W 122°50'0 0.0
2017-Sep-25 03:38N 45°59' W 122°50'0 0.0
2017-Sep-25 03:29N 45°59' W 122°50'0 0.0
2017-Sep-25 02:59N 45°59' W 122°50'0 0.0
2017-Sep-25 02:11N 45°59' W 122°50'0 0.0
2017-Sep-25 01:52N 45°59' W 122°50'0 0.0
2017-Sep-25 01:28N 45°59' W 122°50'0 0.7
2017-Sep-25 01:00N 45°59' W 122°50'4 8.9
2017-Sep-25 00:30N 45°54' W 122°48'612.2
2017-Sep-25 00:00N 45°48' W 122°48'713.2
2017-Sep-24 23:31N 45°42' W 122°46'5 9.8
2017-Sep-24 23:00N 45°37' W 122°47'5 9.3
2017-Sep-24 22:30N 45°34' W 122°43'2 4.5
2017-Sep-24 22:01N 45°32' W 122°41'0 0.0
2017-Sep-24 21:30N 45°32' W 122°41'0 0.0
2017-Sep-24 20:57N 45°32' W 122°41'0 0.0
2017-Sep-24 20:30N 45°32' W 122°41'0 0.0
2017-Sep-24 20:00N 45°32' W 122°41'0 0.0
2017-Sep-24 19:24N 45°32' W 122°41'0 0.0
2017-Sep-24 18:57N 45°32' W 122°41'0 0.0
2017-Sep-24 18:16N 45°32' W 122°41'0 0.0
2017-Sep-24 18:00N 45°32' W 122°41'0 0.0
2017-Sep-24 17:24N 45°32' W 122°41'0 0.0
2017-Sep-24 16:55N 45°32' W 122°41'0 0.0
2017-Sep-24 16:24N 45°32' W 122°41'0 0.0
2017-Sep-24 16:00N 45°32' W 122°41'0 0.0
2017-Sep-24 15:30N 45°32' W 122°41'0 0.0
2017-Sep-24 15:00N 45°32' W 122°41'0 0.0
2017-Sep-24 14:30N 45°32' W 122°41'0 0.0
2017-Sep-24 14:00N 45°32' W 122°41'0 0.0
2017-Sep-24 13:30N 45°32' W 122°41'0 0.0
2017-Sep-24 13:00N 45°32' W 122°41'0 0.0
2017-Sep-24 12:30N 45°32' W 122°41'0 0.0
2017-Sep-24 12:00N 45°32' W 122°41'0 0.0
2017-Sep-24 11:30N 45°32' W 122°41'0 0.0
2017-Sep-24 11:00N 45°32' W 122°41'0 0.0
2017-Sep-24 10:30N 45°32' W 122°41'0 0.0
2017-Sep-24 10:00N 45°32' W 122°41'0 0.0
2017-Sep-24 09:30N 45°32' W 122°41'0 0.0
2017-Sep-24 09:00N 45°32' W 122°41'0 0.0
2017-Sep-24 08:27N 45°32' W 122°41'0 0.0
2017-Sep-24 08:00N 45°32' W 122°41'0 0.0
2017-Sep-24 07:30N 45°32' W 122°41'0 0.0
2017-Sep-24 07:00N 45°32' W 122°41'0 0.0
2017-Sep-24 06:30N 45°32' W 122°41'0 0.0
2017-Sep-24 06:00N 45°32' W 122°41'0 0.0
2017-Sep-24 05:30N 45°32' W 122°41'0 0.0
2017-Sep-24 05:00N 45°32' W 122°41'0 0.0
2017-Sep-24 04:30N 45°32' W 122°41'0 0.0
2017-Sep-24 04:00N 45°32' W 122°41'0 0.0
2017-Sep-24 03:30N 45°32' W 122°41'0 0.0
2017-Sep-24 03:00N 45°32' W 122°41'0 0.0
2017-Sep-24 02:30N 45°32' W 122°41'0 0.2
2017-Sep-24 02:00N 45°32' W 122°41'2 4.8
2017-Sep-24 01:30N 45°34' W 122°43'4 8.1
2017-Sep-24 01:00N 45°37' W 122°47'4 8.1
2017-Sep-24 00:30N 45°41' W 122°47'612.7
2017-Sep-24 00:00N 45°47' W 122°46'612.2
2017-Sep-23 23:30N 45°53' W 122°48'612.2
2017-Sep-23 23:01N 45°59' W 122°50'611.4
2017-Sep-23 22:30N 46°04' W 122°53'511.0
2017-Sep-23 22:00N 46°08' W 122°60'612.3
2017-Sep-23 21:30N 46°11' W 123°07'1211.6
2017-Sep-23 20:29N 46°09' W 123°24'510.9
2017-Sep-23 20:00N 46°15' W 123°26'  

Dump ship's entire track history